NWWWNVVV

Guest
Details From NWWW - Noumea La Tontouta
To NVVV - Bauerfield
Flight Number -
Tags generated
Created
Modified
Stats Distance 285 nm / 529 km
Max Altitude 25,800 ft / 7,864 m
Waypoints 5
Social Downloads 0
Likes 0
Share VATSIM

Download

Looking for another format? Having issues loading an existing format? Contact us
Advertisement - Login to hide

Notes

Basic altitude profile: - Ascent Rate: 2500ft/min - Ascent Speed: 250kts - Cruise Altitude: 35000ft - Cruise Speed: 420kts - Descent Rate: 2000ft/min - Descent Speed: 250kts Options: - Use NATs: yes - Use PACOTS: yes - Use low airways: yes - Use high airways: yes

Route

NWWW LTO B590 LEDIT NVVV

ID Type Via Altitude Latitude Longitude Leg Dist Tot Dist Heading (true) Name
O NWWW APT - 0 ft / 0 m -22.01453˚ 166.21302˚ - 0 nm - Noumea La Tontouta
LTO VOR - 200 ft / 61 m -22.00511˚ 166.21178˚ 0 nm 0 nm 353° / 353° LA TONTOUTA VOR-DME
NIPOG FIX B590 (AWY-LO) 25,800 ft / 7,864 m -19.50000˚ 167.39333˚ 164 nm 165 nm 24° / 24° -
LEDIT FIX B590 (AWY-HI) 19,000 ft / 5,791 m -18.54500˚ 167.83667˚ 62 nm 227 nm 24° / 24° -
O NVVV APT - 0 ft / 0 m -17.69818˚ 168.31754˚ 57 nm 285 nm 28° / 28° Bauerfield

Altitude Profile

Advertisement - Login to hide

Weather


0- 5 10 15 20 25 30 35+ Temperature / ° C

Clouds and Precipitation
Forecast for 2017-12-16 18:00 UTC. Updated an hour ago

Ground ~20,000 ft ~40,000 ft Winds

NWWW

Details ICAO NWWW (NOU)
Name Noumea La Tontouta
Region New Caledonia
Timezone Pacific/Noumea (UTC+11.0)
Stats Elevation 51 ft / 16 m (AMSL)
Location -22.014529° 166.213022°
Runways 1
Magnetic Variation 12.335° E

METAR

NWWW 161630Z AUTO VRB03KT CAVOK 23/19 Q1009 TEMPO 4000 RA

Decode

TAF

TAF NWWW 161100Z 1612/1712 13008KT 9999 FEW030 BKN045 OVC050 PROB30 TEMPO 1612/1619 4000 RA TEMPO 1620/1709 09012G25KT

Decode

Departure Runways

ID Width Length Bearing (true) Bearing (mag) Surface Threshold Offset Overrun Length
11 148 ft / 45 m 10,666 ft / 3,251 m 121.21° 108.88° Asphalt 0 ft / 0 m 338 ft / 103 m
29 148 ft / 45 m 10,666 ft / 3,251 m 301.19° 288.86° Asphalt 0 ft / 0 m 354 ft / 108 m

NVVV

Details ICAO NVVV (VLI)
Name Bauerfield
Region Vanuatu
Timezone Pacific/Efate (UTC+11.0)
Stats Elevation 70 ft / 21 m (AMSL)
Location -17.698183° 168.317539°
Runways 1
Magnetic Variation 11.547° E

METAR

Not found

TAF

TAF NVVV 161000Z 1612/1712 VRB04KT 9999 BKN020 OVC040 INTER 1612/1618 8000 -TSRA BKN015 FEW025CB

Decode

Destination Runways

ID Width Length Bearing (true) Bearing (mag) Surface Threshold Offset Overrun Length
11 148 ft / 45 m 8,531 ft / 2,600 m 118.01° 106.46° Asphalt 0 ft / 0 m 197 ft / 60 m
29 148 ft / 45 m 8,531 ft / 2,600 m 298.01° 286.46° Asphalt 0 ft / 0 m 197 ft / 60 m

Approach Navaids

Runway Type Ident Frequency Range Bearing (true) Bearing (mag) Slope Elevation
11 Localiser IBF 110.70 MHz 18 nm / 33 km 117.54° 106.00° - 10 ft / 3 m (AMSL)
11 DME IBF 110.70 MHz 18 nm / 33 km - - - 13 ft / 4 m (AMSL)

Popular Alternatives